Flight Track Log - Related Links

Times and Time Zones

All times are in EDT time to prevent confusion due to time zone crossing. See the KAP927 flight status page for this flight to view local times or setup timezone preferences in your user account.

Time Position Orientation Groundspeed Altitude Reporting Facility
EDT Latitude Longitude Course Direction KTS MPH feet Rate Location/Type
Fri 07:16:42 AM 44.4467 -75.2986 149° Southeast 149 171 4,400  Level Boston Center
Fri 07:17:42 AM 44.4142 -75.2622 141° Southeast 149 171 5,000 500 Climbing Boston Center
Fri 07:18:42 AM 44.3817 -75.2375 151° Southeast 144 166 5,400 450 Climbing Boston Center
Fri 07:19:42 AM 44.3469 -75.2011 143° Southeast 144 166 5,900 500 Climbing Boston Center
Fri 07:20:42 AM 44.3122 -75.1733 150° Southeast 138 159 6,400 450 Climbing Boston Center
Fri 07:21:00 AM 44.4902 -75.2947 149° Southeast  Level Estimated
Fri 07:21:42 AM 44.2775 -75.1425 148° Southeast 138 159 6,800  Level Boston Center
Fri 07:22:42 AM 44.2428 -75.1122 148° Southeast 143 165 7,300 350 Climbing Boston Center
Fri 07:23:42 AM 44.2061 -75.0786 147° Southeast 149 171 7,500 100 Climbing Boston Center
Fri 07:24:42 AM 44.1631 -75.0419 149° Southeast 163 188 7,500  Level Boston Center
Fri 07:25:42 AM 44.1203 -75.0025 146° Southeast 172 198 7,500  Level Boston Center
Fri 07:26:42 AM 44.0794 -74.9661 147° Southeast 179 206 7,500  Level Boston Center
Fri 07:27:42 AM 44.0364 -74.9267 147° Southeast 179 206 7,500  Level Boston Center
Fri 07:28:42 AM 43.9956 -74.8931 149° Southeast 174 200 7,500  Level Boston Center
Fri 07:29:42 AM 43.9567 -74.8542 144° Southeast 174 200 7,500  Level Boston Center
Fri 07:30:42 AM 43.9178 -74.8208 148° Southeast 174 200 7,500  Level Boston Center
Fri 07:31:42 AM 43.8789 -74.7847 146° Southeast 174 200 7,500  Level Boston Center
Fri 07:32:42 AM 43.8381 -74.7486 147° Southeast 174 200 7,500  Level Boston Center
Fri 07:33:42 AM 43.7969 -74.7153 150° Southeast 174 200 7,500  Level Boston Center
Fri 07:34:42 AM 43.7539 -74.6792 149° Southeast 174 200 7,500  Level Boston Center
Fri 07:35:42 AM 43.7150 -74.6406 144° Southeast 174 200 7,500  Level Boston Center
Fri 07:36:42 AM 43.6742 -74.6072 149° Southeast 180 207 7,500  Level Boston Center
Fri 07:37:42 AM 43.6331 -74.5686 146° Southeast 180 207 7,500  Level Boston Center
Fri 07:38:54 AM 43.5900 -74.5328 149° Southeast 180 207 7,500  Level Boston Center
Fri 07:39:40 AM 43.5508 -74.5028 151° Southeast 174 200 7,500  Level Boston Center
Fri 07:40:40 AM 43.5039 -74.4611 147° Southeast 177 204 7,500  Level Boston Center
Fri 07:41:41 AM 43.4647 -74.4283 149° Southeast 173 199 7,500  Level Boston Center
Fri 07:42:42 AM 43.4236 -74.3925 148° Southeast 174 200 7,500  Level Boston Center
Fri 07:43:42 AM 43.3847 -74.3542 144° Southeast 176 203 7,500  Level Boston Center
Fri 07:44:43 AM 43.3417 -74.3186 149° Southeast 175 201 7,500  Level Boston Center
Fri 07:45:50 AM 43.2944 -74.2744 146° Southeast 176 203 7,500 -198 Level Boston Center
Fri 07:46:44 AM 43.2553 -74.2419 149° Southeast 183 211 7,100 -470 Descending Boston Center
Fri 07:47:45 AM 43.2144 -74.1892 137° Southeast 207 238 6,600 -541 Descending Boston Center
Fri 07:48:46 AM 43.1714 -74.1397 140° Southeast 202 232 6,000 -545 Descending Boston Center
Fri 07:49:46 AM 43.1325 -74.0875 136° Southeast 196 226 5,500 -567 Descending Boston Center
Fri 07:50:53 AM 43.0789 -74.0461 151° Southeast 192 221 4,800 -609 Descending Boston Center
Fri 07:51:54 AM 43.0314 -74.0136 153° Southeast 187 215 4,200 -595 Descending Boston Center
Fri 07:52:54 AM 42.9817 -73.9869 159° South 190 219 3,600 -350 Descending Boston Center
Fri 07:53:54 AM 42.9489 -73.9633 152° Southeast 193 222 3,500 -49 Descending Boston Center
Fri 07:54:56 AM 42.8928 -73.9308 157° South 167 192 3,500  Level Boston Center
Fri 07:55:56 AM 42.8517 -73.9069 157° South 164 189 3,500 -149 Level Boston Center
Fri 07:56:57 AM 42.8081 -73.8833 158° South 171 197 3,200 -466 Descending Boston Center
Fri 07:57:52 AM 42.7644 -73.8683 166° South 186 214 2,600 -783 Descending Boston Center
Fri 07:58:52 AM 42.7167 -73.8531 167° South 165 190 1,700 -843 Descending Boston Center
Fri 07:59:53 AM 42.7172 -73.8106 89° East 127 146 900 -787 Descending Boston Center
Fri 08:01:00 AM 42.7491 -73.8020 26° Northeast  Level Estimated
Fri 08:08:00 AM 42.7491 -73.8020 160° South  Level Estimated
Fri 08:09:00 AM 42.7491 -73.8020 160° South  Level Estimated
Fri 08:10:00 AM 42.7491 -73.8020 160° South  Level Estimated
Fri 08:11:00 AM 42.7491 -73.8020 160° South  Level Estimated

Login

Don't have an account? Register now (free) for customized features, flight alerts, and more!